Time;durP1;ratioP1;P1;durP2;ratioP2;P2;SDS_P1;SDS_P2;PMS_P1;PMS_P2;Temp;Humidity;BMP_temperature;BMP_pressure;BME280_temperature;BME280_humidity;BME280_pressure;Samples;Min_cycle;Max_cycle;Signal;HPM_P1;HPM_P2
2023/10/12 00:01:57;;;;;;;2.90;1.23;;;;;;;;;;20579714;28;20673;-70
2023/10/12 00:12:07;;;;;;;1.60;1.00;;;;;;;;;;20637787;28;20632;-69
2023/10/12 00:22:11;;;;;;;3.30;1.40;;;;;;;;;;20587450;28;20228;-69
2023/10/12 00:32:14;;;;;;;3.63;1.17;;;;;;;;;;20615494;28;20231;-69
2023/10/12 00:42:17;;;;;;;4.73;1.20;;;;;;;;;;20604290;28;20220;-69
2023/10/12 00:52:26;;;;;;;3.47;1.10;;;;;;;;;;20709425;23;20286;-75
2023/10/12 01:02:33;;;;;;;2.00;1.23;;;;;;;;;;20723223;28;20286;-75
2023/10/12 01:12:37;;;;;;;2.57;1.07;;;;;;;;;;20713564;28;20200;-76
2023/10/12 01:22:39;;;;;;;2.30;1.20;;;19.00;99.90;;;;;;20722140;28;20609;-76
2023/10/12 01:32:41;;;;;;;3.27;1.07;;;;;;;;;;20701403;28;20280;-77
2023/10/12 01:52:46;;;;;;;3.40;1.20;;;;;;;;;;20710418;28;20286;-75
2023/10/12 02:03:00;;;;;;;2.67;1.20;;;;;;;;;;20742725;28;20282;-76
2023/10/12 02:13:02;;;;;;;2.73;1.33;;;;;;;;;;20702609;28;20252;-75
2023/10/12 02:23:04;;;;;;;3.00;1.40;;;;;;;;;;20673974;28;20251;-75
2023/10/12 02:33:16;;;;;;;2.10;1.10;;;;;;;;;;20726817;28;20274;-76
2023/10/12 02:43:19;;;;;;;2.13;1.00;;;;;;;;;;20714202;28;20243;-78
2023/10/12 02:53:28;;;;;;;3.90;1.30;;;;;;;;;;20709863;28;20223;-78
2023/10/12 03:13:42;;;;;;;3.77;1.30;;;;;;;;;;20674125;28;20274;-78
2023/10/12 03:23:46;;;;;;;4.07;1.30;;;;;;;;;;20705513;28;20222;-78
2023/10/12 03:33:54;;;;;;;1.73;1.10;;;;;;;;;;20713674;28;20605;-76
2023/10/12 03:44:11;;;;;;;3.37;1.20;;;;;;;;;;20664947;28;20600;-77
2023/10/12 03:54:26;;;;;;;2.93;1.17;;;;;;;;;;20695009;28;20762;-76
2023/10/12 04:04:35;;;;;;;2.37;1.20;;;;;;;;;;20710545;28;20791;-75
2023/10/12 04:24:45;;;;;;;2.37;1.17;;;;;;;;;;20717134;28;20220;-78
2023/10/12 04:34:50;;;;;;;2.63;1.17;;;;;;;;;;20730021;28;20220;-75
2023/10/12 04:45:03;;;;;;;2.00;1.20;;;;;;;;;;20711239;28;20243;-76
2023/10/12 04:55:41;;;;;;;2.40;1.33;;;;;;;;;;20685238;28;20595;-78
2023/10/12 05:16:02;;;;;;;3.77;1.20;;;;;;;;;;20720250;28;20247;-75
2023/10/12 05:36:08;;;;;;;3.03;1.60;;;;;;;;;;20711699;28;20212;-76
2023/10/12 05:46:13;;;;;;;4.80;1.93;;;;;;;;;;20709300;28;20227;-77
2023/10/12 05:56:18;;;;;;;2.47;1.40;;;;;;;;;;20685904;28;20290;-77
2023/10/12 06:06:21;;;;;;;5.07;1.57;;;;;;;;;;20721381;28;20221;-78
2023/10/12 06:16:25;;;;;;;4.80;1.97;;;;;;;;;;20735733;28;20225;-78
2023/10/12 06:26:30;;;;;;;1.90;1.10;;;;;;;;;;20728157;28;20267;-77
2023/10/12 06:36:38;;;;;;;2.60;1.43;;;;;;;;;;20711534;28;20259;-77
2023/10/12 06:46:46;;;;;;;2.63;1.47;;;;;;;;;;20719338;28;20221;-74
2023/10/12 06:56:51;;;;;;;2.13;1.03;;;;;;;;;;20731601;28;20696;-76
2023/10/12 07:07:11;;;;;;;2.83;1.57;;;;;;;;;;20675645;28;20228;-76
2023/10/12 07:17:13;;;;;;;2.60;1.60;;;18.20;99.90;;;;;;20705962;28;20407;-77
2023/10/12 07:27:18;;;;;;;2.70;1.60;;;;;;;;;;20741918;28;20772;-78
2023/10/12 07:37:20;;;;;;;6.00;1.70;;;;;;;;;;20734993;22;20223;-78
2023/10/12 07:47:31;;;;;;;3.77;1.50;;;;;;;;;;20656630;28;20220;-78
2023/10/12 07:57:36;;;;;;;2.33;1.33;;;;;;;;;;20668788;28;20699;-78
2023/10/12 08:07:59;;;;;;;3.33;1.70;;;;;;;;;;20660929;28;20281;-78
2023/10/12 08:18:51;;;;;;;3.53;1.40;;;;;;;;;;20658040;28;20278;-78
2023/10/12 08:28:21;;;;;;;4.07;1.70;;;;;;;;;;20660651;28;20235;-78
2023/10/12 08:38:33;;;;;;;3.20;1.40;;;;;;;;;;20687506;28;20595;-78
2023/10/12 08:48:35;;;;;;;2.87;1.70;;;;;;;;;;20658791;28;20274;-78
2023/10/12 08:58:46;;;;;;;3.20;1.60;;;18.80;99.90;;;;;;20655420;28;20213;-78
2023/10/12 09:08:48;;;;;;;3.10;1.77;;;;;;;;;;20697019;28;20225;-78
2023/10/12 09:18:57;;;;;;;3.07;1.67;;;19.00;99.90;;;;;;20655444;28;20310;-78
2023/10/12 09:29:09;;;;;;;3.27;1.57;;;;;;;;;;20649456;28;20619;-79
2023/10/12 09:39:14;;;;;;;4.30;2.00;;;;;;;;;;20684020;28;20434;-79
2023/10/12 09:49:27;;;;;;;4.90;2.07;;;18.90;99.90;;;;;;20643386;28;20221;-79
2023/10/12 09:59:30;;;;;;;3.23;1.50;;;;;;;;;;20685133;28;20206;-79
2023/10/12 10:19:34;;;;;;;3.47;1.87;;;;;;;;;;20702192;28;20224;-79
2023/10/12 10:29:59;;;;;;;4.50;1.60;;;;;;;;;;20691103;28;20211;-79
2023/10/12 10:40:07;;;;;;;2.60;1.60;;;;;;;;;;20680706;28;20696;-79
2023/10/12 10:50:15;;;;;;;3.97;1.80;;;;;;;;;;20652852;28;20218;-79
2023/10/12 11:00:18;;;;;;;4.10;1.67;;;;;;;;;;20683765;28;20217;-78
2023/10/12 11:10:31;;;;;;;3.83;1.80;;;;;;;;;;20690489;28;20225;-79
2023/10/12 11:20:38;;;;;;;3.33;1.77;;;;;;;;;;20664204;28;20224;-79
2023/10/12 11:30:42;;;;;;;2.90;1.63;;;;;;;;;;20700096;28;20231;-79
2023/10/12 11:40:48;;;;;;;4.43;1.60;;;19.00;99.90;;;;;;20690483;28;20704;-79
2023/10/12 11:50:50;;;;;;;3.73;1.70;;;;;;;;;;20614332;28;20378;-80
2023/10/12 12:00:52;;;;;;;3.03;1.53;;;;;;;;;;20674654;28;20241;-78
2023/10/12 12:10:54;;;;;;;2.43;1.40;;;;;;;;;;20673948;28;20213;-78
2023/10/12 12:20:56;;;;;;;4.03;1.60;;;;;;;;;;20687787;28;20298;-77
2023/10/12 12:31:03;;;;;;;5.60;1.77;;;;;;;;;;20681491;28;20692;-77
2023/10/12 12:41:23;;;;;;;5.10;1.77;;;;;;;;;;20655042;28;20230;-77
2023/10/12 12:51:25;;;;;;;3.77;1.70;;;;;;;;;;20648020;28;20279;-77
2023/10/12 13:01:28;;;;;;;2.70;1.50;;;;;;;;;;20650305;28;20237;-79
2023/10/12 13:11:30;;;;;;;2.23;1.47;;;;;;;;;;20680033;28;20217;-77
2023/10/12 13:21:31;;;;;;;2.30;1.67;;;;;;;;;;20690632;28;20228;-77
2023/10/12 13:31:35;;;;;;;3.07;1.87;;;;;;;;;;20666533;28;20248;-76
2023/10/12 13:41:38;;;;;;;5.30;2.27;;;;;;;;;;20700085;23;20233;-78
2023/10/12 13:51:39;;;;;;;3.03;1.83;;;;;;;;;;20567776;28;20222;-78
2023/10/12 14:01:41;;;;;;;6.90;2.27;;;;;;;;;;20594316;28;20238;-78
2023/10/12 14:11:47;;;;;;;3.80;2.23;;;;;;;;;;20531831;28;20590;-79
2023/10/12 14:21:57;;;;;;;4.43;1.70;;;;;;;;;;20577689;28;20539;-78
2023/10/12 14:32:02;;;;;;;3.03;1.83;;;;;;;;;;20576122;28;20219;-78
2023/10/12 14:42:06;;;;;;;2.53;1.43;;;;;;;;;;20569510;28;20289;-79
2023/10/12 14:52:08;;;;;;;5.53;3.60;;;;;;;;;;20574416;28;20198;-80
2023/10/12 15:02:10;;;;;;;3.70;2.43;;;;;;;;;;20569487;28;20246;-79
2023/10/12 15:12:13;;;;;;;4.83;2.00;;;;;;;;;;20559381;28;20233;-78
2023/10/12 15:22:15;;;;;;;2.20;1.47;;;;;;;;;;20548770;28;20284;-79
2023/10/12 15:32:17;;;;;;;2.53;1.70;;;;;;;;;;20547851;28;20358;-79
2023/10/12 15:42:19;;;;;;;2.53;1.53;;;;;;;;;;20576047;28;20581;-80
2023/10/12 15:52:21;;;;;;;2.90;1.60;;;;;;;;;;20611486;28;20221;-78
2023/10/12 16:02:22;;;;;;;3.17;1.60;;;;;;;;;;20591515;28;20222;-78
2023/10/12 16:12:26;;;;;;;3.53;1.70;;;;;;;;;;20575533;28;20214;-80
2023/10/12 16:22:29;;;;;;;3.60;1.87;;;;;;;;;;20551110;28;20760;-78
2023/10/12 17:42:12;;;;;;;2.90;1.60;;;;;;;;;;21410508;23;20247;-77
2023/10/12 17:52:17;;;;;;;2.87;1.63;;;;;;;;;;20736530;28;20636;-79
2023/10/12 18:02:20;;;;;;;3.70;1.50;;;;;;;;;;20701614;22;20256;-78
2023/10/12 18:12:22;;;;;;;4.50;1.70;;;;;;;;;;20685814;28;20671;-77
2023/10/12 18:22:24;;;;;;;2.40;1.33;;;;;;;;;;20657475;28;20772;-76
2023/10/12 18:32:26;;;;;;;2.93;1.40;;;;;;;;;;20642597;28;20594;-78
2023/10/12 18:42:27;;;;;;;3.10;1.50;;;;;;;;;;20652811;28;20280;-75
2023/10/12 18:52:29;;;;;;;2.20;1.20;;;;;;;;;;20656087;28;20276;-76
2023/10/12 19:02:31;;;;;;;4.90;1.47;;;;;;;;;;20775124;22;20231;-88
2023/10/12 19:12:35;;;;;;;3.00;1.30;;;;;;;;;;20667208;28;20268;-87
2023/10/12 19:22:39;;;;;;;3.80;1.73;;;;;;;;;;18936923;30;2370675;-88
2023/10/12 19:32:40;;;;;;;3.20;1.30;;;;;;;;;;18684066;26;20254;-66
